Time;durP1;ratioP1;P1;durP2;ratioP2;P2;SDS_P1;SDS_P2;PMS_P1;PMS_P2;Temp;Humidity;BMP_temperature;BMP_pressure;BME280_temperature;BME280_humidity;BME280_pressure;Samples;Min_cycle;Max_cycle;Signal;HPM_P1;HPM_P2
2024/03/04 00:00:49;;;;;;;59.10;41.60;;;8.60;99.90;;;;;;5034356;28;20968;-62
2024/03/04 00:03:17;;;;;;;66.23;43.10;;;8.60;99.90;;;;;;5033165;28;20477;-62
2024/03/04 00:05:45;;;;;;;59.53;41.20;;;8.50;99.90;;;;;;5031887;28;20573;-62
2024/03/04 00:08:14;;;;;;;65.27;43.23;;;8.60;99.90;;;;;;5034174;28;20566;-62
2024/03/04 00:10:43;;;;;;;62.43;41.43;;;8.60;99.90;;;;;;5030850;28;20974;-62
2024/03/04 00:13:11;;;;;;;61.53;42.73;;;8.60;99.90;;;;;;5032768;28;20463;-62
2024/03/04 00:15:39;;;;;;;64.53;43.87;;;8.60;99.90;;;;;;5031685;28;20536;-62
2024/03/04 00:18:09;;;;;;;63.07;44.77;;;8.60;99.90;;;;;;5033217;28;21288;-62
2024/03/04 00:20:37;;;;;;;61.60;43.50;;;8.60;99.90;;;;;;5027430;28;20558;-62
2024/03/04 00:23:05;;;;;;;60.57;42.43;;;8.60;99.90;;;;;;5031864;28;20557;-62
2024/03/04 00:25:34;;;;;;;65.43;42.90;;;8.60;99.90;;;;;;5030360;28;21246;-62
2024/03/04 00:28:02;;;;;;;57.53;42.20;;;8.60;99.90;;;;;;5031404;28;20537;-62
2024/03/04 00:30:30;;;;;;;61.03;42.60;;;8.60;99.90;;;;;;5031440;28;21072;-62
2024/03/04 00:32:58;;;;;;;62.20;43.10;;;8.60;99.90;;;;;;5034337;28;20470;-62
2024/03/04 00:35:27;;;;;;;58.43;43.00;;;8.50;99.90;;;;;;5030051;28;20587;-62
2024/03/04 00:37:56;;;;;;;61.20;41.90;;;8.50;99.90;;;;;;5031683;28;20559;-62
2024/03/04 00:40:24;;;;;;;57.17;42.53;;;8.50;99.90;;;;;;5027451;28;20491;-62
2024/03/04 00:42:52;;;;;;;62.50;42.17;;;8.50;99.90;;;;;;5034500;28;20506;-62
2024/03/04 00:45:20;;;;;;;62.43;43.60;;;8.50;99.90;;;;;;5030679;28;21067;-62
2024/03/04 00:47:49;;;;;;;59.40;40.17;;;8.50;99.90;;;;;;5032057;28;20593;-62
2024/03/04 00:50:18;;;;;;;62.60;41.93;;;8.50;99.90;;;;;;5031082;28;20483;-62
2024/03/04 00:52:48;;;;;;;63.17;42.97;;;8.50;99.90;;;;;;5033270;28;20482;-62
2024/03/04 00:55:17;;;;;;;56.00;41.60;;;8.50;99.90;;;;;;5028279;28;21180;-62
2024/03/04 00:57:45;;;;;;;59.37;43.10;;;8.50;99.90;;;;;;5033946;28;20516;-62
2024/03/04 01:00:14;;;;;;;64.23;43.20;;;8.50;99.90;;;;;;5029468;28;21066;-62
2024/03/04 01:02:43;;;;;;;60.60;41.67;;;8.50;99.90;;;;;;5029937;28;20506;-62
2024/03/04 01:05:11;;;;;;;55.17;41.13;;;8.50;99.90;;;;;;5033012;28;20550;-62
2024/03/04 01:07:39;;;;;;;61.00;42.33;;;8.50;99.90;;;;;;5030390;28;20474;-62
2024/03/04 01:10:10;;;;;;;61.57;42.47;;;8.50;99.90;;;;;;5031363;28;20579;-62
2024/03/04 01:12:38;;;;;;;59.10;42.77;;;8.40;99.90;;;;;;5031810;28;20474;-62
2024/03/04 01:15:08;;;;;;;61.83;42.83;;;8.50;99.90;;;;;;5031144;28;20466;-61
2024/03/04 01:17:36;;;;;;;56.20;40.37;;;8.40;99.90;;;;;;5029248;28;20546;-62
2024/03/04 01:20:09;;;;;;;60.67;42.70;;;8.40;99.90;;;;;;5029235;28;20498;-62
2024/03/04 01:22:38;;;;;;;59.47;43.53;;;8.40;99.90;;;;;;5029978;28;20576;-62
2024/03/04 01:25:06;;;;;;;59.73;40.93;;;8.40;99.90;;;;;;5031680;28;25085;-62
2024/03/04 01:27:36;;;;;;;59.57;41.70;;;8.40;99.90;;;;;;5033564;28;21992;-62
2024/03/04 01:30:06;;;;;;;56.23;42.23;;;8.40;99.90;;;;;;5032393;28;20491;-62
2024/03/04 01:32:35;;;;;;;60.00;44.10;;;8.40;99.90;;;;;;5028830;28;20898;-62
2024/03/04 01:35:07;;;;;;;54.83;41.27;;;8.40;99.90;;;;;;5033455;28;20462;-62
2024/03/04 01:37:35;;;;;;;58.40;42.30;;;8.40;99.90;;;;;;5029349;28;20650;-62
2024/03/04 01:40:04;;;;;;;60.00;43.87;;;8.40;99.90;;;;;;5024833;28;20647;-62
2024/03/04 01:42:32;;;;;;;62.50;42.73;;;8.40;99.90;;;;;;5032302;28;20478;-62
2024/03/04 01:45:02;;;;;;;57.83;41.87;;;8.40;99.90;;;;;;5027581;28;20481;-62
2024/03/04 01:47:32;;;;;;;57.80;43.20;;;8.40;99.90;;;;;;5029791;28;20475;-62
2024/03/04 01:50:00;;;;;;;61.83;43.07;;;8.40;99.90;;;;;;5032477;28;20486;-62
2024/03/04 01:52:28;;;;;;;60.23;42.67;;;8.40;99.90;;;;;;5027183;28;20474;-62
2024/03/04 01:54:57;;;;;;;57.93;42.60;;;8.40;99.90;;;;;;5035607;28;20585;-62
2024/03/04 01:57:25;;;;;;;56.40;41.77;;;8.40;99.90;;;;;;5032761;28;20475;-62
2024/03/04 01:59:54;;;;;;;58.30;42.40;;;8.40;99.90;;;;;;5035559;28;20565;-63
2024/03/04 02:02:23;;;;;;;62.00;42.57;;;8.40;99.90;;;;;;5033299;28;20558;-62
2024/03/04 02:04:51;;;;;;;56.23;40.77;;;8.40;99.90;;;;;;5035413;28;21427;-62
2024/03/04 02:07:19;;;;;;;57.83;42.30;;;8.40;99.90;;;;;;5036617;28;20487;-62
2024/03/04 02:09:49;;;;;;;61.17;43.33;;;8.40;99.90;;;;;;5030687;28;21787;-62
2024/03/04 02:12:17;;;;;;;60.30;43.67;;;8.40;99.90;;;;;;5034674;28;20870;-62
2024/03/04 02:14:46;;;;;;;57.43;42.00;;;8.30;99.90;;;;;;5034486;28;20475;-62
2024/03/04 02:17:14;;;;;;;56.07;41.30;;;8.30;99.90;;;;;;5018659;28;20510;-62
2024/03/04 02:19:44;;;;;;;57.60;41.20;;;8.30;99.90;;;;;;5011809;28;20793;-62
2024/03/04 02:22:14;;;;;;;57.80;42.50;;;8.30;99.90;;;;;;5010623;28;20962;-62
2024/03/04 02:24:44;;;;;;;53.70;41.27;;;8.40;99.90;;;;;;5013806;28;20498;-62
2024/03/04 02:27:12;;;;;;;60.40;42.20;;;8.40;99.90;;;;;;5014097;28;20507;-62
2024/03/04 02:29:40;;;;;;;63.50;42.83;;;8.40;99.90;;;;;;5013821;28;20510;-62
2024/03/04 02:32:09;;;;;;;55.40;42.10;;;8.40;99.90;;;;;;5010043;28;20470;-62
2024/03/04 02:34:38;;;;;;;59.63;43.63;;;8.30;99.90;;;;;;5011840;28;20542;-62
2024/03/04 02:37:06;;;;;;;55.57;41.07;;;8.30;99.90;;;;;;5011584;28;20479;-62
2024/03/04 02:39:34;;;;;;;61.10;43.90;;;8.30;99.90;;;;;;5015573;28;20491;-62
2024/03/04 02:42:04;;;;;;;56.17;40.70;;;8.30;99.90;;;;;;5016741;28;20464;-62
2024/03/04 02:44:34;;;;;;;60.50;43.50;;;8.30;99.90;;;;;;5013170;28;20464;-62
2024/03/04 02:47:02;;;;;;;56.47;41.33;;;8.30;99.90;;;;;;5012827;28;20518;-62
2024/03/04 02:49:30;;;;;;;55.13;39.93;;;8.30;99.90;;;;;;5013874;28;20499;-62
2024/03/04 02:51:58;;;;;;;56.80;40.67;;;8.30;99.90;;;;;;5013947;28;20947;-62
2024/03/04 02:54:26;;;;;;;61.30;43.80;;;8.30;99.90;;;;;;5012243;28;20499;-62
2024/03/04 02:56:55;;;;;;;55.90;41.50;;;8.30;99.90;;;;;;5010221;28;20916;-62
2024/03/04 02:59:24;;;;;;;54.40;41.43;;;8.30;99.90;;;;;;5013020;28;20495;-62
2024/03/04 03:01:52;;;;;;;53.77;40.70;;;8.30;99.90;;;;;;5010689;28;20480;-62
2024/03/04 03:04:20;;;;;;;58.90;41.63;;;8.30;99.90;;;;;;5013437;28;20853;-62
2024/03/04 03:06:48;;;;;;;52.27;38.20;;;8.30;99.90;;;;;;5014252;28;20857;-62
2024/03/04 03:09:17;;;;;;;61.47;42.30;;;8.30;99.90;;;;;;5013556;28;20610;-62
2024/03/04 03:11:45;;;;;;;57.73;43.30;;;8.30;99.90;;;;;;5014137;28;20480;-62
2024/03/04 03:14:13;;;;;;;57.87;41.70;;;8.30;99.90;;;;;;5010131;28;20504;-62
2024/03/04 03:16:42;;;;;;;53.53;40.20;;;8.30;99.90;;;;;;5012730;28;21082;-63
2024/03/04 03:19:21;;;;;;;60.13;42.87;;;8.30;99.90;;;;;;5011824;28;20495;-62
2024/03/04 03:21:52;;;;;;;48.23;37.50;;;8.30;99.90;;;;;;5009730;28;20467;-62
2024/03/04 03:24:20;;;;;;;49.47;40.40;;;8.30;99.90;;;;;;5011557;28;20799;-62
2024/03/04 03:26:48;;;;;;;55.93;40.43;;;8.30;99.90;;;;;;5012627;28;20487;-62
2024/03/04 03:29:17;;;;;;;55.60;41.27;;;8.30;99.90;;;;;;5008706;28;20657;-62
2024/03/04 03:31:46;;;;;;;55.40;40.87;;;8.20;99.90;;;;;;5009330;28;20980;-63
2024/03/04 03:34:14;;;;;;;48.90;40.63;;;8.20;99.90;;;;;;5011920;28;20467;-62
2024/03/04 03:36:43;;;;;;;48.30;39.03;;;8.20;99.90;;;;;;5007209;28;20494;-62
2024/03/04 03:39:12;;;;;;;51.37;39.67;;;8.20;99.90;;;;;;5014379;28;20495;-62
2024/03/04 03:41:40;;;;;;;50.17;39.00;;;8.20;99.90;;;;;;5012850;28;20472;-62
2024/03/04 03:44:08;;;;;;;54.03;39.80;;;8.20;99.90;;;;;;5007294;28;20836;-62
2024/03/04 03:46:36;;;;;;;52.50;42.33;;;8.20;99.90;;;;;;5013073;28;20578;-62
2024/03/04 03:49:06;;;;;;;52.13;39.57;;;8.20;99.90;;;;;;5011126;28;20937;-62
2024/03/04 03:51:34;;;;;;;52.60;39.00;;;8.20;99.90;;;;;;5011634;28;20933;-63
2024/03/04 03:54:02;;;;;;;50.50;39.37;;;8.20;99.90;;;;;;5008499;28;20908;-62
2024/03/04 03:56:30;;;;;;;53.70;40.90;;;8.10;99.90;;;;;;5007446;28;20494;-62
2024/03/04 03:58:58;;;;;;;49.93;40.13;;;8.10;99.90;;;;;;5013225;28;20600;-62
2024/03/04 04:01:25;;;;;;;56.03;39.83;;;8.10;99.90;;;;;;5007929;28;20467;-62
2024/03/04 04:03:54;;;;;;;52.10;38.60;;;8.10;99.90;;;;;;5013348;28;20566;-62
2024/03/04 04:06:23;;;;;;;54.90;40.03;;;8.00;99.90;;;;;;5003289;28;20489;-62
2024/03/04 04:08:51;;;;;;;51.87;39.20;;;8.00;99.90;;;;;;5005975;28;21319;-62
2024/03/04 04:11:19;;;;;;;52.00;40.07;;;8.00;99.90;;;;;;5012192;28;20563;-61
2024/03/04 04:13:47;;;;;;;54.63;38.67;;;7.90;99.90;;;;;;5013580;28;20476;-62
2024/03/04 04:16:15;;;;;;;52.87;39.80;;;7.90;99.90;;;;;;5008521;28;20800;-61
2024/03/04 04:18:43;;;;;;;54.90;38.80;;;7.90;99.90;;;;;;5013073;28;20574;-61
2024/03/04 04:21:12;;;;;;;53.30;40.17;;;7.80;99.90;;;;;;5006195;28;20549;-61
2024/03/04 04:23:41;;;;;;;50.03;37.83;;;7.80;99.90;;;;;;5006967;28;20934;-62
2024/03/04 04:26:09;;;;;;;51.37;37.50;;;7.80;99.90;;;;;;5011051;28;20932;-61
2024/03/04 04:28:38;;;;;;;51.67;39.47;;;7.80;99.90;;;;;;5013556;28;20584;-62
2024/03/04 04:31:06;;;;;;;56.63;39.93;;;7.70;99.90;;;;;;5007106;28;20468;-61
2024/03/04 04:33:34;;;;;;;54.97;39.30;;;7.70;99.90;;;;;;5010782;28;20533;-61
2024/03/04 04:36:02;;;;;;;53.23;39.80;;;7.70;99.90;;;;;;5014788;28;20495;-61
2024/03/04 04:38:30;;;;;;;50.90;38.93;;;7.70;99.90;;;;;;5010220;28;20509;-62
2024/03/04 04:40:59;;;;;;;49.37;37.87;;;7.60;99.90;;;;;;4999539;28;20481;-61
2024/03/04 04:43:27;;;;;;;52.80;38.87;;;7.60;99.90;;;;;;5010252;28;20471;-62
2024/03/04 04:45:55;;;;;;;49.03;38.17;;;7.60;99.90;;;;;;5011895;28;20479;-62
2024/03/04 04:48:24;;;;;;;47.60;38.60;;;7.60;99.90;;;;;;5013024;28;20517;-61
2024/03/04 04:50:52;;;;;;;51.00;38.73;;;7.50;99.90;;;;;;5011661;28;20493;-62
2024/03/04 04:53:20;;;;;;;49.73;37.63;;;7.50;99.90;;;;;;5007882;28;20558;-61
2024/03/04 04:55:48;;;;;;;51.40;39.57;;;7.50;99.90;;;;;;5006507;28;20492;-62
2024/03/04 04:58:18;;;;;;;53.47;38.87;;;7.40;99.90;;;;;;5010771;28;20498;-61
2024/03/04 05:00:46;;;;;;;50.43;38.63;;;7.40;99.90;;;;;;5013757;28;20520;-62
2024/03/04 05:03:14;;;;;;;48.70;38.10;;;7.40;99.90;;;;;;5012043;28;20505;-62
2024/03/04 05:06:02;;;;;;;50.47;38.97;;;7.40;99.90;;;;;;5015126;28;20491;-62
2024/03/04 05:08:30;;;;;;;50.77;35.97;;;7.30;99.90;;;;;;5013653;28;20567;-62
2024/03/04 05:10:58;;;;;;;47.20;37.50;;;7.30;99.90;;;;;;5008519;28;20558;-61
2024/03/04 05:13:28;;;;;;;51.60;37.80;;;7.30;99.90;;;;;;5012824;28;20471;-61
2024/03/04 05:15:56;;;;;;;47.40;36.87;;;7.30;99.90;;;;;;5014899;28;20538;-62
2024/03/04 05:18:24;;;;;;;49.90;37.53;;;7.30;99.90;;;;;;5011179;28;21057;-62
2024/03/04 05:20:52;;;;;;;50.90;38.80;;;7.30;99.90;;;;;;5011920;28;20554;-62
2024/03/04 05:23:24;;;;;;;54.23;38.17;;;7.30;99.90;;;;;;5015255;28;20467;-62
2024/03/04 05:25:52;;;;;;;49.70;38.43;;;7.30;99.90;;;;;;5010743;28;20511;-62
2024/03/04 05:28:20;;;;;;;53.27;38.57;;;7.30;99.90;;;;;;5013897;28;20475;-61
2024/03/04 05:30:49;;;;;;;50.03;37.70;;;7.30;99.90;;;;;;5013585;28;20996;-61
2024/03/04 05:33:17;;;;;;;53.00;39.13;;;7.20;99.90;;;;;;5013791;28;20787;-61
2024/03/04 05:35:45;;;;;;;47.37;37.47;;;7.20;99.90;;;;;;5016108;28;20505;-61
2024/03/04 05:38:13;;;;;;;50.17;38.43;;;7.20;99.90;;;;;;5031927;28;20589;-61
2024/03/04 05:40:41;;;;;;;48.57;38.47;;;7.20;99.90;;;;;;5028551;28;20883;-61
2024/03/04 05:43:09;;;;;;;53.10;39.33;;;7.20;99.90;;;;;;5036045;28;20497;-62
2024/03/04 05:45:37;;;;;;;55.97;41.37;;;7.20;99.90;;;;;;5027554;28;20467;-62
2024/03/04 05:48:08;;;;;;;51.40;38.23;;;7.20;99.90;;;;;;5009409;28;20549;-61
2024/03/04 05:50:37;;;;;;;53.27;39.90;;;7.20;99.90;;;;;;5015465;28;20467;-61
2024/03/04 05:53:05;;;;;;;55.70;40.73;;;7.20;99.90;;;;;;5014319;28;20878;-62
2024/03/04 05:55:33;;;;;;;52.20;39.33;;;7.20;99.90;;;;;;5013644;28;21812;-62
2024/03/04 05:58:01;;;;;;;55.10;38.90;;;7.20;99.90;;;;;;5008061;28;20500;-62
2024/03/04 06:00:30;;;;;;;55.17;40.90;;;7.20;99.90;;;;;;5001870;28;20925;-62
2024/03/04 06:02:59;;;;;;;51.77;38.73;;;7.20;99.90;;;;;;5006414;28;21531;-62
2024/03/04 06:05:28;;;;;;;56.70;40.90;;;7.10;99.90;;;;;;5008729;28;20562;-62
2024/03/04 06:07:58;;;;;;;54.53;39.63;;;7.10;99.90;;;;;;5011955;28;20593;-64
2024/03/04 06:10:27;;;;;;;51.77;39.10;;;7.10;99.90;;;;;;5009445;28;20613;-63
2024/03/04 06:12:55;;;;;;;59.23;42.70;;;7.10;99.90;;;;;;5005302;28;20471;-61
2024/03/04 06:15:23;;;;;;;54.63;39.30;;;7.20;99.90;;;;;;5011487;28;20907;-62
2024/03/04 06:17:51;;;;;;;53.27;39.90;;;7.20;99.90;;;;;;5004380;28;20602;-64
2024/03/04 06:20:19;;;;;;;53.00;41.50;;;7.20;99.90;;;;;;5002214;28;20496;-62
2024/03/04 06:22:49;;;;;;;61.70;42.00;;;7.10;99.90;;;;;;5002353;28;20467;-62
2024/03/04 06:25:17;;;;;;;52.83;41.00;;;7.10;99.90;;;;;;4989854;28;20545;-62
2024/03/04 06:27:45;;;;;;;55.63;40.70;;;7.10;99.90;;;;;;4994321;28;20592;-62
2024/03/04 06:30:15;;;;;;;55.93;41.13;;;7.20;99.90;;;;;;4992836;28;20497;-62
2024/03/04 06:32:44;;;;;;;55.77;39.97;;;7.10;99.90;;;;;;4998700;28;21428;-62
2024/03/04 06:35:12;;;;;;;58.53;41.73;;;7.10;99.90;;;;;;4993959;28;20471;-62
2024/03/04 06:37:40;;;;;;;54.10;42.50;;;7.10;99.90;;;;;;4994408;28;20472;-62
2024/03/04 06:40:11;;;;;;;58.80;41.83;;;7.10;99.90;;;;;;5001205;28;20506;-62
2024/03/04 06:42:39;;;;;;;58.83;41.47;;;7.10;99.90;;;;;;5005798;28;20475;-62
2024/03/04 06:45:08;;;;;;;63.43;42.90;;;7.10;99.90;;;;;;5002856;28;20475;-61
2024/03/04 06:47:35;;;;;;;57.63;43.20;;;7.10;99.90;;;;;;5003397;28;20595;-62
2024/03/04 06:50:05;;;;;;;62.00;42.07;;;7.10;99.90;;;;;;5008559;28;20574;-62
2024/03/04 06:52:33;;;;;;;62.77;43.80;;;7.10;99.90;;;;;;5008075;28;20685;-62
2024/03/04 06:55:01;;;;;;;54.90;41.70;;;7.20;99.90;;;;;;5001075;28;20562;-62
2024/03/04 06:57:30;;;;;;;58.77;42.80;;;7.20;99.90;;;;;;5005435;28;20495;-62
2024/03/04 07:00:03;;;;;;;59.13;41.60;;;7.20;99.90;;;;;;5005909;28;20589;-62
2024/03/04 07:02:31;;;;;;;60.27;43.13;;;7.20;99.90;;;;;;4992068;28;20926;-61
2024/03/04 07:04:59;;;;;;;59.67;42.80;;;7.20;99.90;;;;;;5004812;28;20463;-61
2024/03/04 07:07:27;;;;;;;64.50;42.60;;;7.20;99.90;;;;;;4997932;28;20490;-61
2024/03/04 07:09:55;;;;;;;58.20;41.30;;;7.20;99.90;;;;;;4999879;28;20577;-62
2024/03/04 07:12:23;;;;;;;60.40;39.73;;;7.20;99.90;;;;;;5003592;28;20471;-62
2024/03/04 07:14:52;;;;;;;62.93;41.80;;;7.20;99.90;;;;;;5002014;28;20479;-62
2024/03/04 07:17:20;;;;;;;60.07;42.67;;;7.20;99.90;;;;;;5002705;28;20598;-62
2024/03/04 07:19:48;;;;;;;56.53;39.90;;;7.20;99.90;;;;;;5001873;28;20618;-61
2024/03/04 07:22:16;;;;;;;56.03;39.90;;;7.20;99.90;;;;;;5004578;28;20502;-61
2024/03/04 07:24:44;;;;;;;59.97;41.57;;;7.20;99.90;;;;;;5002716;28;20471;-61
2024/03/04 07:27:12;;;;;;;61.90;41.60;;;7.20;99.90;;;;;;4996532;28;20593;-61
2024/03/04 07:29:40;;;;;;;57.00;40.10;;;7.20;99.90;;;;;;4993513;28;20503;-61
2024/03/04 07:32:17;;;;;;;61.70;40.50;;;7.20;99.90;;;;;;5004193;28;20984;-61
2024/03/04 07:34:45;;;;;;;56.97;40.30;;;7.20;99.90;;;;;;4996520;28;20464;-61
2024/03/04 07:37:13;;;;;;;55.33;38.40;;;7.20;99.90;;;;;;5001040;28;20488;-61
2024/03/04 07:39:42;;;;;;;55.93;41.03;;;7.20;99.90;;;;;;4999603;28;20495;-62
2024/03/04 07:42:10;;;;;;;55.87;40.33;;;7.20;99.90;;;;;;5001515;28;20594;-62
2024/03/04 07:44:41;;;;;;;57.43;39.97;;;7.20;99.90;;;;;;4997323;28;20969;-62
2024/03/04 07:47:09;;;;;;;57.77;41.27;;;7.30;99.90;;;;;;4998887;28;20491;-61
2024/03/04 07:49:38;;;;;;;55.10;40.33;;;7.30;99.90;;;;;;4993313;28;20513;-61
2024/03/04 07:52:07;;;;;;;60.60;41.17;;;7.30;99.90;;;;;;4997157;28;20464;-62
2024/03/04 07:54:35;;;;;;;56.70;41.60;;;7.30;99.90;;;;;;4999303;28;20471;-62
2024/03/04 07:57:04;;;;;;;57.83;40.70;;;7.40;99.90;;;;;;5000343;28;20473;-61
2024/03/04 07:59:44;;;;;;;58.90;41.90;;;7.40;99.90;;;;;;4997827;28;21095;-62
2024/03/04 08:02:12;;;;;;;56.47;40.33;;;7.50;99.90;;;;;;5001335;28;20562;-64
2024/03/04 08:04:44;;;;;;;55.23;41.20;;;7.50;99.90;;;;;;5001854;28;21546;-64
2024/03/04 08:07:13;;;;;;;57.13;41.10;;;7.50;99.90;;;;;;4999691;28;20489;-64
2024/03/04 08:09:41;;;;;;;58.03;41.10;;;7.60;99.90;;;;;;4996940;28;20495;-64
2024/03/04 08:12:09;;;;;;;59.40;42.07;;;7.60;99.90;;;;;;4997903;28;20480;-64
2024/03/04 08:14:38;;;;;;;53.13;39.53;;;7.60;99.90;;;;;;4999036;28;20622;-64
2024/03/04 08:17:06;;;;;;;58.07;41.47;;;7.60;99.90;;;;;;4995219;28;21077;-64
2024/03/04 08:19:34;;;;;;;60.77;41.97;;;7.60;99.90;;;;;;5000916;28;20590;-64
2024/03/04 08:22:05;;;;;;;58.77;41.77;;;7.70;99.90;;;;;;4997443;28;20477;-63
2024/03/04 08:24:34;;;;;;;61.00;40.57;;;7.70;99.90;;;;;;5002663;28;20476;-65
2024/03/04 08:27:02;;;;;;;54.63;40.50;;;7.70;99.90;;;;;;5001144;28;20518;-62
2024/03/04 08:29:30;;;;;;;56.30;38.77;;;7.80;99.90;;;;;;5005487;28;20590;-62
2024/03/04 08:31:58;;;;;;;58.20;41.60;;;7.80;99.90;;;;;;4998285;28;21036;-62
2024/03/04 08:34:29;;;;;;;58.80;42.23;;;7.80;99.90;;;;;;4990270;28;20464;-62
2024/03/04 08:36:57;;;;;;;55.60;41.00;;;7.80;99.90;;;;;;4992988;28;20495;-62
2024/03/04 08:39:26;;;;;;;58.57;40.83;;;7.80;99.90;;;;;;4996777;28;20487;-62
2024/03/04 08:41:54;;;;;;;53.27;40.07;;;7.90;99.90;;;;;;4987570;28;22986;-62
2024/03/04 08:44:23;;;;;;;55.50;39.27;;;7.90;99.90;;;;;;4987826;28;20471;-62
2024/03/04 08:46:51;;;;;;;55.37;41.63;;;8.00;99.90;;;;;;5001269;28;21146;-62
2024/03/04 08:49:19;;;;;;;60.13;41.10;;;8.00;99.90;;;;;;5000650;28;20494;-62
2024/03/04 08:51:47;;;;;;;53.40;38.97;;;8.10;99.90;;;;;;5004316;28;20576;-62
2024/03/04 08:54:15;;;;;;;55.63;40.50;;;8.10;99.90;;;;;;4999915;28;20822;-62
2024/03/04 08:56:44;;;;;;;57.37;40.40;;;8.10;99.90;;;;;;4998192;28;21041;-62
2024/03/04 08:59:12;;;;;;;54.30;39.97;;;8.20;99.90;;;;;;5001956;28;20539;-62
2024/03/04 09:01:41;;;;;;;52.00;39.67;;;8.20;99.90;;;;;;4998804;28;20561;-61
2024/03/04 09:04:09;;;;;;;57.40;39.20;;;8.20;99.90;;;;;;5004747;28;20482;-62
2024/03/04 09:06:38;;;;;;;56.30;39.80;;;8.20;99.90;;;;;;5000434;28;20566;-62
2024/03/04 09:09:08;;;;;;;53.70;39.73;;;8.30;99.90;;;;;;5004110;28;20585;-61
2024/03/04 09:11:36;;;;;;;52.33;39.97;;;8.30;99.90;;;;;;5004815;28;20503;-61
2024/03/04 09:14:05;;;;;;;52.37;40.73;;;8.30;99.90;;;;;;5005782;28;20510;-61
2024/03/04 09:16:33;;;;;;;57.90;40.90;;;8.30;99.90;;;;;;5005416;28;20537;-61
2024/03/04 09:19:02;;;;;;;52.00;38.97;;;8.30;99.90;;;;;;5003306;28;20491;-61
2024/03/04 09:21:30;;;;;;;55.70;41.57;;;8.30;99.90;;;;;;5004851;28;20489;-61
2024/03/04 09:23:58;;;;;;;54.07;40.30;;;8.30;99.90;;;;;;5007279;28;21001;-61
2024/03/04 09:26:26;;;;;;;56.63;40.67;;;8.40;99.90;;;;;;5003536;28;20487;-61
2024/03/04 09:28:54;;;;;;;53.67;40.60;;;8.40;99.90;;;;;;5004296;28;20585;-61
2024/03/04 09:31:24;;;;;;;53.87;40.77;;;8.50;99.90;;;;;;5009693;28;20456;-61
2024/03/04 09:33:52;;;;;;;50.73;40.30;;;8.50;99.90;;;;;;5005506;28;20472;-61
2024/03/04 09:36:20;;;;;;;55.17;42.17;;;8.60;99.90;;;;;;5006327;28;20483;-61
2024/03/04 09:38:48;;;;;;;55.37;40.10;;;8.60;99.90;;;;;;4999985;28;21167;-62
2024/03/04 09:41:18;;;;;;;57.40;43.17;;;8.70;99.90;;;;;;5006168;28;20498;-61
2024/03/04 09:43:47;;;;;;;49.43;40.00;;;8.70;99.90;;;;;;5004282;28;20559;-62
2024/03/04 09:46:18;;;;;;;55.57;39.67;;;8.70;99.90;;;;;;5001038;28;20961;-61
2024/03/04 09:48:50;;;;;;;58.10;44.23;;;8.70;99.90;;;;;;5004236;28;20502;-61
2024/03/04 09:51:23;;;;;;;55.43;41.90;;;8.80;99.90;;;;;;5002950;28;20522;-61
2024/03/04 09:53:53;;;;;;;57.23;41.93;;;8.80;99.90;;;;;;5003697;28;20558;-61
2024/03/04 09:56:21;;;;;;;55.37;41.87;;;8.70;99.90;;;;;;5001641;28;20523;-61
2024/03/04 09:58:49;;;;;;;60.27;42.53;;;8.80;99.90;;;;;;5006923;28;21068;-61
2024/03/04 10:01:18;;;;;;;61.00;42.47;;;8.80;99.90;;;;;;5003348;28;20487;-61
2024/03/04 10:03:49;;;;;;;56.37;41.57;;;8.80;99.90;;;;;;5004052;28;20478;-62
2024/03/04 10:06:17;;;;;;;58.10;40.13;;;8.80;99.90;;;;;;5000138;28;20494;-62
2024/03/04 10:08:45;;;;;;;53.30;41.67;;;8.90;99.90;;;;;;4999844;28;20495;-61
2024/03/04 10:11:13;;;;;;;53.43;40.70;;;9.00;99.90;;;;;;5002455;28;20472;-61
2024/03/04 10:13:42;;;;;;;55.53;43.07;;;9.00;99.90;;;;;;4999988;28;20555;-61
2024/03/04 10:16:14;;;;;;;55.97;40.70;;;9.00;99.90;;;;;;5001180;28;20491;-65
2024/03/04 10:18:42;;;;;;;55.17;40.30;;;9.00;99.90;;;;;;5003744;28;21362;-64
2024/03/04 10:21:12;;;;;;;52.83;40.40;;;9.00;99.90;;;;;;5006432;28;20499;-63
2024/03/04 10:23:40;;;;;;;56.83;42.00;;;9.10;99.90;;;;;;5006527;28;20483;-63
2024/03/04 10:26:09;;;;;;;54.37;40.33;;;9.10;99.90;;;;;;5004175;28;21233;-63
2024/03/04 10:28:38;;;;;;;54.93;41.23;;;9.30;99.90;;;;;;5002983;28;20609;-63
2024/03/04 10:31:08;;;;;;;53.00;40.00;;;9.40;99.90;;;;;;5002365;28;20479;-63
2024/03/04 10:33:37;;;;;;;52.50;41.63;;;9.40;99.90;;;;;;5001470;28;20472;-63
2024/03/04 10:36:26;;;;;;;55.20;42.00;;;9.50;99.90;;;;;;5007046;28;20476;-63
2024/03/04 10:38:55;;;;;;;55.23;40.77;;;9.50;99.90;;;;;;5008150;28;20586;-64
2024/03/04 10:41:25;;;;;;;58.80;42.37;;;9.50;99.90;;;;;;5006434;28;20541;-64
2024/03/04 10:43:53;;;;;;;62.33;44.63;;;9.50;99.90;;;;;;5007098;28;20530;-63
2024/03/04 10:46:22;;;;;;;57.37;41.40;;;9.60;99.90;;;;;;5003343;28;20578;-63
2024/03/04 10:48:50;;;;;;;55.70;41.80;;;9.60;99.90;;;;;;4988121;28;20510;-64
2024/03/04 10:51:18;;;;;;;54.20;40.90;;;9.70;99.90;;;;;;4986835;28;20567;-65
2024/03/04 10:53:48;;;;;;;63.97;43.73;;;9.70;99.90;;;;;;4988784;28;20464;-63
2024/03/04 10:56:17;;;;;;;57.60;42.90;;;9.70;99.90;;;;;;4998979;28;20989;-64
2024/03/04 10:58:45;;;;;;;57.20;43.63;;;9.80;99.90;;;;;;4994324;28;21032;-64
2024/03/04 11:01:17;;;;;;;55.20;41.77;;;9.90;99.90;;;;;;4993710;28;20979;-63
2024/03/04 11:03:51;;;;;;;59.13;43.90;;;10.00;99.90;;;;;;4992495;28;20479;-63
2024/03/04 11:06:23;;;;;;;56.13;42.70;;;10.10;99.90;;;;;;4987569;28;20492;-63
2024/03/04 11:08:56;;;;;;;62.70;46.30;;;10.10;99.90;;;;;;4990715;28;21027;-64
2024/03/04 11:11:29;;;;;;;61.53;45.63;;;10.20;99.90;;;;;;4991014;28;20478;-63
2024/03/04 11:14:03;;;;;;;61.70;46.40;;;10.30;99.90;;;;;;4989305;28;20472;-63
2024/03/04 11:16:38;;;;;;;60.47;46.33;;;10.40;99.90;;;;;;4993751;28;20918;-64
2024/03/04 11:19:19;;;;;;;58.80;44.90;;;10.50;99.90;;;;;;4989473;28;21047;-63
2024/03/04 11:21:49;;;;;;;56.80;43.20;;;10.60;99.90;;;;;;4995666;28;20498;-64
2024/03/04 11:24:19;;;;;;;60.27;45.10;;;10.80;99.90;;;;;;4992320;28;20543;-63
2024/03/04 11:26:49;;;;;;;58.83;44.10;;;11.00;99.90;;;;;;4988872;28;20917;-64
2024/03/04 11:29:18;;;;;;;62.60;46.07;;;11.20;99.90;;;;;;4988407;28;20570;-64
2024/03/04 11:31:54;;;;;;;52.10;42.60;;;11.30;99.90;;;;;;4992019;28;20468;-64
2024/03/04 11:34:22;;;;;;;59.17;45.47;;;11.50;99.90;;;;;;4990550;28;20470;-63
2024/03/04 11:36:50;;;;;;;58.40;43.53;;;11.70;99.90;;;;;;4995228;28;20492;-63
2024/03/04 11:39:21;;;;;;;52.90;42.47;;;11.80;99.90;;;;;;4992167;28;20587;-63
2024/03/04 11:41:52;;;;;;;55.37;43.83;;;12.00;99.90;;;;;;4991338;28;20499;-64
2024/03/04 11:44:25;;;;;;;54.27;43.17;;;12.10;99.90;;;;;;4986946;28;20467;-61
2024/03/04 11:46:55;;;;;;;59.17;46.67;;;12.20;99.90;;;;;;4989532;28;20499;-62
2024/03/04 11:49:24;;;;;;;55.17;45.40;;;12.40;99.90;;;;;;4988071;28;20561;-61
2024/03/04 11:52:06;;;;;;;55.27;44.07;;;12.60;99.90;;;;;;4998190;28;20761;-62
2024/03/04 11:54:45;;;;;;;51.90;42.60;;;12.70;99.90;;;;;;4993401;28;20992;-62
2024/03/04 11:57:14;;;;;;;55.60;44.70;;;12.90;99.90;;;;;;5004870;28;20571;-62
2024/03/04 11:59:56;;;;;;;55.13;45.90;;;13.10;99.90;;;;;;5006122;28;20487;-61
2024/03/04 12:02:25;;;;;;;51.67;42.73;;;13.20;99.90;;;;;;5000565;28;20522;-61
2024/03/04 12:04:53;;;;;;;54.50;42.80;;;13.40;99.90;;;;;;5001151;28;20866;-62
2024/03/04 12:07:21;;;;;;;50.47;44.97;;;13.60;99.90;;;;;;5000817;28;20488;-62
2024/03/04 12:09:58;;;;;;;47.20;41.00;;;13.80;99.90;;;;;;5002181;28;20607;-62
2024/03/04 12:12:40;;;;;;;48.10;41.57;;;14.00;99.90;;;;;;4996985;28;20976;-61
2024/03/04 12:15:10;;;;;;;45.57;40.33;;;14.20;99.90;;;;;;5000445;28;20566;-62
2024/03/04 12:17:39;;;;;;;45.13;39.30;;;14.40;99.90;;;;;;5021075;28;20477;-62
2024/03/04 12:20:10;;;;;;;50.37;42.50;;;14.70;99.90;;;;;;5023081;28;20497;-62
2024/03/04 12:22:38;;;;;;;45.67;39.83;;;14.90;99.90;;;;;;5010092;28;20878;-62
2024/03/04 12:25:09;;;;;;;44.33;39.57;;;15.20;99.90;;;;;;5018217;28;21298;-62
2024/03/04 12:27:39;;;;;;;43.07;38.50;;;15.60;99.90;;;;;;4992146;28;20480;-62
2024/03/04 12:30:09;;;;;;;42.07;37.67;;;16.10;99.90;;;;;;4994191;28;21161;-61
2024/03/04 12:32:37;;;;;;;40.87;36.47;;;17.00;99.90;;;;;;4997261;28;20476;-65
2024/03/04 12:35:15;;;;;;;41.57;37.23;;;18.50;99.90;;;;;;4994300;28;20487;-61
2024/03/04 12:37:44;;;;;;;41.80;37.57;;;20.10;99.90;;;;;;5001669;28;20475;-62
2024/03/04 12:40:14;;;;;;;40.07;36.10;;;21.30;99.90;;;;;;4998764;28;20500;-63
2024/03/04 12:42:42;;;;;;;37.80;34.20;;;22.50;99.90;;;;;;4999287;28;20487;-65
2024/03/04 12:45:11;;;;;;;41.17;37.50;;;24.00;99.90;;;;;;5000644;28;20639;-63